Google Maps JavaScript API Example
Pilot Flight Report # 94335 Submitted by : AST204 on 2020-08-28
Date: 2020-08-28Aircraft: Boeing 737-900
Flight No.: AST18264Distance (Nm): 1475.02
Departure: KEWR - Newark InternationalDestination: TNCM - Princess Juliana International
 TimeFuelWeightSpeeds  
Out (Taxi)1434Z27762 lbs148913 lbs Flight RulesIFR
Off (Takeoff)1446Z 148911 lbs295 ktsFlight Level33000
On (Landing)1805Z 139416 lbs126 ktsVSTD-344 ft/min
In (Ramp)1816Z17807 lbs138957 lbs ZFW121149 lbs
Flight3.40  -  3:239493 lbs  Pax0
Block3.70  -  3:299955 lbs  Cargo0
Departure WeatherKEWR 231517Z 22408KT 12SM OVC013 OVC042 26/23 A3005
Destination WeatherTFFG 231816Z 09106KT 23SM SCT018 28/24 A3001
Flight Comments